EGNR

Hawarden Airport

Hawarden, United Kingdom
METAR EGNR 211320Z 32009KT 9999 SCT010 BKN023 19/15 Q1016
Observed Flight Rules
Jul-21 @ 13:20 UTC (22 minutes ago) Marginal Visual Flight Rules
Wind Visibility Clouds
320° at 9 knots 10,000+ meters
  • Scattered at 1,000' AGL
  • Broken at 2,300' AGL
Temperatures Readings
Current 19°C / 66°F
Dewpoint 15°C / 59°F
Humidity 78%
Altimeter 30" Hg
Pressure 1016 hPa
Elevation 10
METAR EGNR 211320Z 32009KT 9999 SCT010 BKN023 19/15 Q1016
Observed Flight Rules
Jul-21 @ 13:20 UTC
(22 minutes ago)
MVFR
Wind Visibility
320° at 9 knots 10,000+ meters
Clouds
  • Scattered at 1,000' AGL
  • Broken at 2,300' AGL
Temperature Dewpoint
19°C / 66°F 15°C / 59°F
Humidity Altimeter Pressure
78% 30" Hg 1016 hPa